createdAt,value
2022-09-04T00:00:39.374Z,1.10
2022-09-04T00:01:40.922Z,1.40
2022-09-04T00:02:40.284Z,1.00
2022-09-04T00:03:39.373Z,1.10
2022-09-04T00:04:39.475Z,0.70
2022-09-04T00:05:39.254Z,1.10
2022-09-04T00:06:39.255Z,1.00
2022-09-04T00:07:39.225Z,0.90
2022-09-04T00:08:39.222Z,0.80
2022-09-04T00:09:39.213Z,0.90
2022-09-04T00:10:39.196Z,1.40
2022-09-04T00:11:39.202Z,1.00
2022-09-04T00:12:39.172Z,0.90
2022-09-04T00:13:39.157Z,1.10
2022-09-04T00:14:39.157Z,1.00
2022-09-04T00:15:39.130Z,0.90
2022-09-04T00:16:39.169Z,1.20
2022-09-04T00:17:39.116Z,0.90
2022-09-04T00:18:39.106Z,1.00
2022-09-04T00:19:39.090Z,0.90
2022-09-04T00:20:39.088Z,0.80
2022-09-04T00:21:39.086Z,0.80
2022-09-04T00:22:39.066Z,0.90
2022-09-04T00:23:39.044Z,1.00
2022-09-04T00:24:39.038Z,0.70
2022-09-04T00:25:39.032Z,0.90
2022-09-04T00:26:39.024Z,0.90
2022-09-04T00:27:39.001Z,1.20
2022-09-04T00:28:38.991Z,1.00
2022-09-04T00:29:38.977Z,1.10
2022-09-04T00:30:39.017Z,0.90
2022-09-04T00:31:38.991Z,1.20
2022-09-04T00:32:38.948Z,1.00
2022-09-04T00:33:38.938Z,0.80
2022-09-04T00:34:38.920Z,1.00
2022-09-04T00:35:39.323Z,1.10
2022-09-04T00:36:38.903Z,0.80
2022-09-04T00:37:38.883Z,1.10
2022-09-04T00:38:38.880Z,1.00
2022-09-04T00:39:38.921Z,0.80
2022-09-04T00:40:38.854Z,1.30
2022-09-04T00:41:38.849Z,1.20
2022-09-04T00:42:38.831Z,0.90
2022-09-04T00:43:38.811Z,1.00
2022-09-04T00:44:38.812Z,1.10
2022-09-04T00:45:38.816Z,0.80
2022-09-04T00:46:38.793Z,0.90
2022-09-04T00:47:38.781Z,0.90
2022-09-04T00:48:38.766Z,1.00
2022-09-04T00:49:38.747Z,1.00
2022-09-04T00:50:38.738Z,1.10
2022-09-04T00:51:38.734Z,1.00
2022-09-04T00:52:38.714Z,1.00
2022-09-04T00:53:38.702Z,1.20
2022-09-04T00:54:38.688Z,0.80
2022-09-04T00:55:38.685Z,0.60
2022-09-04T00:56:38.679Z,0.90
2022-09-04T00:57:38.649Z,0.80
2022-09-04T00:58:38.644Z,0.80
2022-09-04T00:59:38.637Z,0.70
2022-09-04T01:00:38.618Z,1.00
2022-09-04T01:01:38.803Z,0.80
2022-09-04T01:02:38.595Z,0.90
2022-09-04T01:03:38.583Z,1.10
2022-09-04T01:04:38.567Z,0.70
2022-09-04T01:05:38.563Z,0.90
2022-09-04T01:06:38.571Z,1.00
2022-09-04T01:07:38.543Z,0.70
2022-09-04T01:08:38.527Z,0.80
2022-09-04T01:09:38.513Z,1.00
2022-09-04T01:10:38.514Z,0.90
2022-09-04T01:11:38.502Z,1.00
2022-09-04T01:12:38.481Z,0.90
2022-09-04T01:13:38.464Z,0.70
2022-09-04T01:14:38.459Z,1.00
2022-09-04T01:15:38.453Z,0.70
2022-09-04T01:16:38.500Z,0.80
2022-09-04T01:17:38.419Z,0.80
2022-09-04T01:18:38.412Z,1.10
2022-09-04T01:19:38.398Z,0.90
2022-09-04T01:20:38.393Z,0.80
2022-09-04T01:21:38.391Z,0.80
2022-09-04T01:22:38.381Z,0.90
2022-09-04T01:23:38.362Z,0.60
2022-09-04T01:24:38.341Z,0.90
2022-09-04T01:25:38.334Z,0.70
2022-09-04T01:26:38.336Z,0.90
2022-09-04T01:27:38.316Z,0.60
2022-09-04T01:28:38.298Z,1.10
2022-09-04T01:29:38.280Z,1.00
2022-09-04T01:30:38.272Z,0.80
2022-09-04T01:31:38.370Z,1.00
2022-09-04T01:32:38.249Z,0.80
2022-09-04T01:33:38.236Z,0.90
2022-09-04T01:34:38.230Z,0.90
2022-09-04T01:35:38.215Z,0.80
2022-09-04T01:36:38.231Z,1.20
2022-09-04T01:37:38.195Z,0.70
2022-09-04T01:38:38.184Z,1.10
2022-09-04T01:39:38.273Z,0.80
2022-09-04T01:40:38.170Z,0.90
2022-09-04T01:41:38.704Z,0.90
2022-09-04T01:42:38.133Z,0.90
2022-09-04T01:43:38.125Z,0.80
2022-09-04T01:44:38.114Z,0.90
2022-09-04T01:45:38.168Z,0.90
2022-09-04T01:46:38.098Z,0.90
2022-09-04T01:47:38.078Z,0.90
2022-09-04T01:48:38.070Z,1.00
2022-09-04T01:49:38.052Z,0.90
2022-09-04T01:50:38.055Z,0.80
2022-09-04T01:51:38.051Z,0.90
2022-09-04T01:52:38.019Z,0.70
2022-09-04T01:53:38.010Z,0.60
2022-09-04T01:54:37.999Z,0.80
2022-09-04T01:55:37.996Z,0.70
2022-09-04T01:56:38.001Z,0.60
2022-09-04T01:57:37.968Z,1.00
2022-09-04T01:58:37.973Z,0.70
2022-09-04T01:59:37.946Z,0.90
2022-09-04T02:00:38.019Z,0.60
2022-09-04T02:01:37.927Z,1.00
2022-09-04T02:02:37.977Z,0.80
2022-09-04T02:03:37.903Z,0.80
2022-09-04T02:04:37.883Z,0.70
2022-09-04T02:05:37.871Z,0.90
2022-09-04T02:06:37.875Z,0.80
2022-09-04T02:07:37.845Z,0.90
2022-09-04T02:08:37.844Z,0.70
2022-09-04T02:09:37.831Z,0.80
2022-09-04T02:10:37.818Z,0.70
2022-09-04T02:11:37.820Z,0.80
2022-09-04T02:12:37.791Z,0.80
2022-09-04T02:13:37.778Z,1.00
2022-09-04T02:14:37.776Z,0.70
2022-09-04T02:15:37.756Z,0.70
2022-09-04T02:16:37.814Z,0.90
2022-09-04T02:17:37.740Z,0.90
2022-09-04T02:18:37.728Z,0.70
2022-09-04T02:19:37.710Z,0.90
2022-09-04T02:20:37.703Z,1.00
2022-09-04T02:21:37.710Z,1.00
2022-09-04T02:22:37.679Z,0.70
2022-09-04T02:23:37.673Z,0.70
2022-09-04T02:24:37.652Z,0.70
2022-09-04T02:25:37.640Z,0.80
2022-09-04T02:26:37.655Z,0.90
2022-09-04T02:27:37.621Z,1.00
2022-09-04T02:28:37.610Z,0.70
2022-09-04T02:29:37.617Z,1.00
2022-09-04T02:30:37.585Z,0.80
2022-09-04T02:31:37.624Z,0.70
2022-09-04T02:32:37.559Z,1.00
2022-09-04T02:33:37.564Z,0.70
2022-09-04T02:34:37.548Z,0.90
2022-09-04T02:35:37.536Z,1.00
2022-09-04T02:36:37.531Z,0.80
2022-09-04T02:37:37.505Z,0.70
2022-09-04T02:38:37.499Z,0.70
2022-09-04T02:39:37.551Z,0.80
2022-09-04T02:40:37.475Z,0.80
2022-09-04T02:41:37.477Z,0.70
2022-09-04T02:42:37.450Z,0.80
2022-09-04T02:43:37.440Z,0.80
2022-09-04T02:44:37.427Z,1.50
2022-09-04T02:45:37.424Z,0.90
2022-09-04T02:46:42.579Z,0.90
2022-09-04T02:47:38.388Z,0.90
2022-09-04T02:48:37.380Z,0.90
2022-09-04T02:49:37.375Z,1.10
2022-09-04T02:50:37.357Z,0.70
2022-09-04T02:51:37.362Z,0.90
2022-09-04T02:52:37.335Z,0.70
2022-09-04T02:53:37.326Z,0.90
2022-09-04T02:54:37.309Z,0.70
2022-09-04T02:55:37.305Z,0.80
2022-09-04T02:56:37.315Z,0.80
2022-09-04T02:57:37.276Z,1.00
2022-09-04T02:58:37.276Z,0.70
2022-09-04T02:59:37.255Z,0.90
2022-09-04T03:00:37.280Z,0.90
2022-09-04T03:01:37.265Z,0.90
2022-09-04T03:02:37.225Z,0.80
2022-09-04T03:03:37.206Z,1.00
2022-09-04T03:04:37.197Z,0.80
2022-09-04T03:05:37.188Z,0.70
2022-09-04T03:06:37.197Z,0.50
2022-09-04T03:07:37.169Z,0.90
2022-09-04T03:08:37.155Z,0.60
2022-09-04T03:09:37.144Z,1.10
2022-09-04T03:10:37.127Z,0.60
2022-09-04T03:11:37.151Z,1.10
2022-09-04T03:12:37.113Z,0.80
2022-09-04T03:13:37.098Z,0.90
2022-09-04T03:14:37.089Z,1.00
2022-09-04T03:15:37.071Z,0.80
2022-09-04T03:16:37.112Z,0.90
2022-09-04T03:17:37.056Z,0.80
2022-09-04T03:18:37.037Z,0.90
2022-09-04T03:19:37.033Z,0.80
2022-09-04T03:20:37.040Z,0.70
2022-09-04T03:21:37.008Z,0.60
2022-09-04T03:22:36.998Z,0.90
2022-09-04T03:23:36.994Z,0.90
2022-09-04T03:24:36.979Z,0.60
2022-09-04T03:25:36.963Z,0.90
2022-09-04T03:26:36.973Z,1.00
2022-09-04T03:27:36.937Z,0.80
2022-09-04T03:28:36.928Z,0.90
2022-09-04T03:29:36.915Z,0.60
2022-09-04T03:30:36.905Z,0.70
2022-09-04T03:31:36.977Z,0.60
2022-09-04T03:32:36.883Z,0.60
2022-09-04T03:33:36.871Z,0.70
2022-09-04T03:34:36.886Z,0.80
2022-09-04T03:35:36.846Z,0.70
2022-09-04T03:36:36.850Z,0.90
2022-09-04T03:37:36.823Z,1.10
2022-09-04T03:38:36.818Z,0.60
2022-09-04T03:39:36.857Z,0.80
2022-09-04T03:40:36.792Z,1.00
2022-09-04T03:41:36.790Z,0.80
2022-09-04T03:42:36.771Z,0.80
2022-09-04T03:43:36.761Z,0.70
2022-09-04T03:44:36.783Z,0.90
2022-09-04T03:45:36.737Z,0.70
2022-09-04T03:46:36.814Z,0.80
2022-09-04T03:47:36.710Z,0.90
2022-09-04T03:48:36.703Z,0.80
2022-09-04T03:49:36.686Z,0.80
2022-09-04T03:50:36.677Z,0.80
2022-09-04T03:51:36.681Z,0.90
2022-09-04T03:52:36.653Z,0.90
2022-09-04T03:53:36.649Z,0.90
2022-09-04T03:54:36.640Z,0.90
2022-09-04T03:55:36.627Z,0.90
2022-09-04T03:56:36.633Z,0.60
2022-09-04T03:57:36.596Z,0.90
2022-09-04T03:58:36.599Z,0.80
2022-09-04T03:59:37.983Z,0.80
2022-09-04T04:00:36.607Z,0.80
2022-09-04T04:01:36.567Z,1.00
2022-09-04T04:02:36.583Z,1.00
2022-09-04T04:03:36.535Z,0.90
2022-09-04T04:04:36.528Z,1.00
2022-09-04T04:05:36.506Z,0.90
2022-09-04T04:06:36.526Z,0.80
2022-09-04T04:07:36.483Z,1.00
2022-09-04T04:08:36.475Z,0.60
2022-09-04T04:09:36.469Z,0.80
2022-09-04T04:10:36.512Z,0.90
2022-09-04T04:11:40.169Z,1.00
2022-09-04T04:12:37.435Z,0.70
2022-09-04T04:13:36.420Z,1.00
2022-09-04T04:14:36.400Z,0.70
2022-09-04T04:15:36.396Z,0.70
2022-09-04T04:16:36.455Z,0.80
2022-09-04T04:17:36.370Z,0.80
2022-09-04T04:18:36.366Z,0.80
2022-09-04T04:19:36.361Z,0.70
2022-09-04T04:20:36.339Z,0.70
2022-09-04T04:21:36.347Z,0.80
2022-09-04T04:22:36.316Z,0.70
2022-09-04T04:23:36.338Z,0.90
2022-09-04T04:24:36.300Z,0.80
2022-09-04T04:25:36.282Z,0.80
2022-09-04T04:26:36.284Z,1.00
2022-09-04T04:27:36.264Z,0.80
2022-09-04T04:28:36.249Z,0.80
2022-09-04T04:29:36.238Z,0.80
2022-09-04T04:30:36.258Z,0.80
2022-09-04T04:31:36.373Z,0.70
2022-09-04T04:32:36.211Z,0.80
2022-09-04T04:33:36.192Z,0.70
2022-09-04T04:34:36.183Z,0.90
2022-09-04T04:35:36.170Z,0.90
2022-09-04T04:36:36.181Z,0.70
2022-09-04T04:37:36.141Z,0.90
2022-09-04T04:38:36.139Z,0.80
2022-09-04T04:39:36.194Z,0.70
2022-09-04T04:40:36.117Z,1.00
2022-09-04T04:41:36.120Z,0.90
2022-09-04T04:42:36.094Z,0.80
2022-09-04T04:43:36.079Z,1.10
2022-09-04T04:44:36.073Z,1.10
2022-09-04T04:45:36.053Z,0.80
2022-09-04T04:46:36.130Z,0.80
2022-09-04T04:47:36.035Z,0.80
2022-09-04T04:48:36.023Z,0.80
2022-09-04T04:49:36.019Z,1.00
2022-09-04T04:50:35.999Z,1.00
2022-09-04T04:51:36.005Z,1.00
2022-09-04T04:52:35.991Z,0.60
2022-09-04T04:53:35.982Z,0.80
2022-09-04T04:54:35.963Z,0.90
2022-09-04T04:55:35.947Z,0.70
2022-09-04T04:56:35.954Z,1.00
2022-09-04T04:57:35.918Z,1.10
2022-09-04T04:58:35.910Z,1.10
2022-09-04T04:59:35.904Z,0.90
2022-09-04T05:00:35.889Z,0.80
2022-09-04T05:01:35.993Z,0.80
2022-09-04T05:02:35.982Z,0.70
2022-09-04T05:03:35.857Z,0.80
2022-09-04T05:04:35.846Z,0.90
2022-09-04T05:05:35.842Z,0.70
2022-09-04T05:06:35.833Z,0.60
2022-09-04T05:07:35.809Z,0.60
2022-09-04T05:08:35.804Z,0.70
2022-09-04T05:09:35.787Z,0.90
2022-09-04T05:10:35.772Z,0.70
2022-09-04T05:11:35.787Z,0.60
2022-09-04T05:12:35.754Z,0.80
2022-09-04T05:13:35.740Z,0.90
2022-09-04T05:14:35.737Z,0.80
2022-09-04T05:15:43.844Z,0.80
2022-09-04T05:16:36.776Z,0.80
2022-09-04T05:17:35.692Z,0.80
2022-09-04T05:18:35.691Z,0.70
2022-09-04T05:19:35.671Z,0.70
2022-09-04T05:20:35.668Z,0.80
2022-09-04T05:21:35.663Z,0.90
2022-09-04T05:22:35.642Z,1.00
2022-09-04T05:23:35.628Z,0.80
2022-09-04T05:24:35.624Z,0.60
2022-09-04T05:25:35.607Z,0.80
2022-09-04T05:26:35.613Z,0.90
2022-09-04T05:27:35.585Z,0.60
2022-09-04T05:28:35.572Z,0.90
2022-09-04T05:29:35.579Z,1.00
2022-09-04T05:30:35.551Z,1.10
2022-09-04T05:31:37.885Z,0.70
2022-09-04T05:32:35.524Z,0.70
2022-09-04T05:33:35.521Z,0.90
2022-09-04T05:34:35.509Z,0.50
2022-09-04T05:35:35.818Z,0.80
2022-09-04T05:36:35.512Z,0.90
2022-09-04T05:37:35.488Z,0.90
2022-09-04T05:38:35.468Z,1.10
2022-09-04T05:39:35.469Z,0.90
2022-09-04T05:40:35.440Z,0.70
2022-09-04T05:41:35.447Z,0.60
2022-09-04T05:42:35.428Z,1.00
2022-09-04T05:43:35.402Z,0.60
2022-09-04T05:44:35.392Z,0.80
2022-09-04T05:45:35.382Z,0.90
2022-09-04T05:46:35.517Z,0.80
2022-09-04T05:47:35.357Z,0.80
2022-09-04T05:48:35.348Z,0.60
2022-09-04T05:49:35.344Z,0.90
2022-09-04T05:50:35.323Z,0.60
2022-09-04T05:51:36.474Z,0.50
2022-09-04T05:52:35.300Z,1.00
2022-09-04T05:53:35.291Z,0.80
2022-09-04T05:54:35.290Z,0.80
2022-09-04T05:55:35.282Z,1.10
2022-09-04T05:56:35.273Z,0.70
2022-09-04T05:57:35.244Z,0.80
2022-09-04T05:58:35.233Z,1.00
2022-09-04T05:59:35.220Z,1.00
2022-09-04T06:00:35.214Z,0.70
2022-09-04T06:01:35.236Z,1.10
2022-09-04T06:02:35.235Z,0.90
2022-09-04T06:03:35.290Z,0.70
2022-09-04T06:04:35.162Z,0.80
2022-09-04T06:05:35.152Z,1.10
2022-09-04T06:06:35.237Z,0.90
2022-09-04T06:07:35.132Z,1.10
2022-09-04T06:08:35.123Z,0.90
2022-09-04T06:09:35.140Z,0.90
2022-09-04T06:10:35.097Z,1.00
2022-09-04T06:11:35.101Z,1.10
2022-09-04T06:12:35.074Z,0.90
2022-09-04T06:13:35.075Z,1.00
2022-09-04T06:14:35.065Z,1.00
2022-09-04T06:15:35.039Z,0.80
2022-09-04T06:16:35.162Z,0.90
2022-09-04T06:17:35.017Z,0.80
2022-09-04T06:18:35.013Z,1.00
2022-09-04T06:19:35.000Z,1.00
2022-09-04T06:20:34.986Z,1.00
2022-09-04T06:21:34.990Z,0.60
2022-09-04T06:22:35.041Z,0.90
2022-09-04T06:23:34.964Z,1.00
2022-09-04T06:24:34.945Z,0.70
2022-09-04T06:25:34.958Z,1.00
2022-09-04T06:26:34.919Z,0.90
2022-09-04T06:27:35.591Z,1.40
2022-09-04T06:28:34.903Z,0.90
2022-09-04T06:29:34.977Z,1.30
2022-09-04T06:30:34.877Z,1.10
2022-09-04T06:31:34.932Z,1.10
2022-09-04T06:32:34.843Z,1.00
2022-09-04T06:33:34.833Z,1.10
2022-09-04T06:34:34.836Z,0.80
2022-09-04T06:35:34.817Z,1.10
2022-09-04T06:36:34.818Z,1.40
2022-09-04T06:37:34.787Z,1.30
2022-09-04T06:38:34.784Z,0.90
2022-09-04T06:39:34.812Z,1.50
2022-09-04T06:40:34.780Z,1.20
2022-09-04T06:41:34.745Z,1.30
2022-09-04T06:42:34.735Z,1.20
2022-09-04T06:43:34.730Z,1.20
2022-09-04T06:44:34.719Z,0.90
2022-09-04T06:45:34.717Z,1.10
2022-09-04T06:46:34.751Z,1.20
2022-09-04T06:47:34.701Z,1.20
2022-09-04T06:48:34.673Z,1.60
2022-09-04T06:49:34.654Z,1.20
2022-09-04T06:50:34.648Z,1.40
2022-09-04T06:51:34.649Z,0.90
2022-09-04T06:52:34.623Z,1.30
2022-09-04T06:53:34.614Z,1.50
2022-09-04T06:54:34.596Z,1.20
2022-09-04T06:55:34.587Z,1.10
2022-09-04T06:56:34.591Z,1.20
2022-09-04T06:57:34.569Z,1.30
2022-09-04T06:58:34.555Z,1.20
2022-09-04T06:59:34.544Z,1.10
2022-09-04T07:00:34.529Z,1.20
2022-09-04T07:01:34.684Z,1.30
2022-09-04T07:02:34.646Z,1.30
2022-09-04T07:03:34.498Z,1.30
2022-09-04T07:04:34.544Z,1.20
2022-09-04T07:05:34.466Z,1.70
2022-09-04T07:06:34.553Z,1.10
2022-09-04T07:07:34.453Z,1.40
2022-09-04T07:08:34.444Z,1.30
2022-09-04T07:09:34.428Z,0.90
2022-09-04T07:10:34.421Z,1.40
2022-09-04T07:11:34.413Z,1.20
2022-09-04T07:12:34.397Z,1.50
2022-09-04T07:13:34.382Z,1.30
2022-09-04T07:14:34.373Z,1.20
2022-09-04T07:15:34.403Z,1.30
2022-09-04T07:16:34.365Z,1.20
2022-09-04T07:17:34.338Z,1.10
2022-09-04T07:18:34.340Z,1.40
2022-09-04T07:19:34.315Z,1.50
2022-09-04T07:20:34.304Z,1.70
2022-09-04T07:21:34.312Z,1.40
2022-09-04T07:22:34.282Z,1.90
2022-09-04T07:23:34.269Z,1.60
2022-09-04T07:24:34.261Z,1.40
2022-09-04T07:25:34.245Z,1.60
2022-09-04T07:26:34.249Z,1.40
2022-09-04T07:27:34.221Z,1.70
2022-09-04T07:28:34.211Z,1.60
2022-09-04T07:29:34.199Z,1.60
2022-09-04T07:30:34.203Z,1.90
2022-09-04T07:31:34.237Z,1.60
2022-09-04T07:32:34.174Z,1.40
2022-09-04T07:33:34.153Z,1.40
2022-09-04T07:34:34.142Z,1.30
2022-09-04T07:35:34.142Z,1.50
2022-09-04T07:36:34.133Z,1.70
2022-09-04T07:37:34.107Z,1.60
2022-09-04T07:38:34.100Z,1.50
2022-09-04T07:39:34.130Z,1.80
2022-09-04T07:40:34.074Z,1.70
2022-09-04T07:41:34.093Z,1.60
2022-09-04T07:42:34.057Z,1.50
2022-09-04T07:43:34.037Z,1.50
2022-09-04T07:44:34.026Z,1.70
2022-09-04T07:45:34.025Z,1.60
2022-09-04T07:46:34.106Z,1.80
2022-09-04T07:47:33.999Z,1.50
2022-09-04T07:48:33.980Z,1.80
2022-09-04T07:49:33.975Z,1.50
2022-09-04T07:50:33.964Z,1.80
2022-09-04T07:51:33.967Z,1.50
2022-09-04T07:52:33.938Z,1.70
2022-09-04T07:53:33.924Z,1.60
2022-09-04T07:54:33.911Z,1.60
2022-09-04T07:55:33.915Z,1.90
2022-09-04T07:56:33.920Z,1.60
2022-09-04T07:57:33.886Z,1.70
2022-09-04T07:58:33.874Z,1.60
2022-09-04T07:59:33.857Z,1.50
2022-09-04T08:00:33.852Z,1.90
2022-09-04T08:01:38.206Z,1.90
2022-09-04T08:02:34.828Z,1.70
2022-09-04T08:03:33.816Z,1.80
2022-09-04T08:04:33.824Z,1.80
2022-09-04T08:05:33.794Z,1.60
2022-09-04T08:06:33.802Z,1.60
2022-09-04T08:07:33.777Z,1.80
2022-09-04T08:08:33.760Z,1.80
2022-09-04T08:09:33.746Z,1.90
2022-09-04T08:10:33.736Z,1.60
2022-09-04T08:11:33.742Z,1.50
2022-09-04T08:12:33.715Z,2.00
2022-09-04T08:13:33.706Z,1.80
2022-09-04T08:14:33.690Z,1.90
2022-09-04T08:15:33.688Z,2.00
2022-09-04T08:16:34.681Z,1.70
2022-09-04T08:17:33.656Z,1.70
2022-09-04T08:18:33.651Z,1.80
2022-09-04T08:19:33.628Z,1.70
2022-09-04T08:20:33.621Z,1.90
2022-09-04T08:21:33.637Z,1.90
2022-09-04T08:22:33.600Z,2.00
2022-09-04T08:23:33.587Z,1.60
2022-09-04T08:24:33.573Z,1.80
2022-09-04T08:25:33.561Z,2.00
2022-09-04T08:26:33.579Z,2.00
2022-09-04T08:27:33.536Z,2.00
2022-09-04T08:28:33.527Z,1.70
2022-09-04T08:29:33.517Z,1.70
2022-09-04T08:30:33.573Z,2.00
2022-09-04T08:31:33.505Z,1.80
2022-09-04T08:32:38.125Z,2.00
2022-09-04T08:33:34.468Z,1.90
2022-09-04T08:34:33.452Z,1.80
2022-09-04T08:35:33.458Z,2.00
2022-09-04T08:36:33.453Z,2.10
2022-09-04T08:37:33.422Z,1.90
2022-09-04T08:38:33.418Z,1.90
2022-09-04T08:39:33.547Z,1.90
2022-09-04T08:40:33.403Z,1.80
2022-09-04T08:41:33.436Z,1.80
2022-09-04T08:42:33.362Z,2.20
2022-09-04T08:43:33.354Z,1.70
2022-09-04T08:44:33.340Z,1.90
2022-09-04T08:45:42.232Z,2.00
2022-09-04T08:46:34.370Z,2.00
2022-09-04T08:47:33.303Z,2.20
2022-09-04T08:48:33.295Z,1.70
2022-09-04T08:49:33.284Z,2.10
2022-09-04T08:50:33.273Z,1.60
2022-09-04T08:51:33.274Z,1.60
2022-09-04T08:52:33.249Z,1.90
2022-09-04T08:53:33.257Z,1.70
2022-09-04T08:54:33.227Z,2.10
2022-09-04T08:55:33.214Z,1.90
2022-09-04T08:56:33.224Z,1.70
2022-09-04T08:57:33.191Z,1.80
2022-09-04T08:58:34.491Z,1.80
2022-09-04T08:59:33.184Z,2.10
2022-09-04T09:00:33.161Z,2.00
2022-09-04T09:01:33.239Z,2.10
2022-09-04T09:02:33.213Z,1.80
2022-09-04T09:03:33.122Z,1.90
2022-09-04T09:04:33.116Z,1.70
2022-09-04T09:05:33.104Z,1.70
2022-09-04T09:06:33.115Z,2.00
2022-09-04T09:07:33.082Z,1.80
2022-09-04T09:08:33.201Z,1.70
2022-09-04T09:09:33.063Z,1.60
2022-09-04T09:10:33.059Z,1.60
2022-09-04T09:11:33.048Z,1.60
2022-09-04T09:12:40.741Z,1.80
2022-09-04T09:13:34.019Z,2.00
2022-09-04T09:14:33.005Z,1.80
2022-09-04T09:15:32.994Z,2.00
2022-09-04T09:16:33.040Z,1.80
2022-09-04T09:17:34.345Z,1.80
2022-09-04T09:18:32.963Z,1.70
2022-09-04T09:19:32.953Z,1.70
2022-09-04T09:20:32.951Z,1.60
2022-09-04T09:21:32.948Z,1.70
2022-09-04T09:22:32.916Z,1.70
2022-09-04T09:23:32.907Z,1.60
2022-09-04T09:24:32.920Z,1.40
2022-09-04T09:25:32.900Z,1.40
2022-09-04T09:26:32.872Z,1.70
2022-09-04T09:27:32.866Z,1.50
2022-09-04T09:28:32.855Z,1.90
2022-09-04T09:29:32.838Z,1.50
2022-09-04T09:30:32.876Z,1.50
2022-09-04T09:31:32.821Z,1.80
2022-09-04T09:32:32.812Z,1.50
2022-09-04T09:33:32.800Z,1.60
2022-09-04T09:34:32.796Z,1.40
2022-09-04T09:35:32.781Z,1.50
2022-09-04T09:36:32.782Z,1.80
2022-09-04T09:37:32.757Z,1.50
2022-09-04T09:38:32.752Z,1.40
2022-09-04T09:39:32.762Z,1.70
2022-09-04T09:40:32.737Z,1.40
2022-09-04T09:41:32.731Z,1.70
2022-09-04T09:42:32.708Z,1.50
2022-09-04T09:43:32.691Z,1.60
2022-09-04T09:44:32.688Z,1.70
2022-09-04T09:45:32.676Z,1.70
2022-09-04T09:46:32.682Z,1.50
2022-09-04T09:47:32.655Z,1.30
2022-09-04T09:48:32.641Z,1.40
2022-09-04T09:49:32.639Z,1.40
2022-09-04T09:50:32.627Z,1.60
2022-09-04T09:51:32.647Z,1.30
2022-09-04T09:52:32.602Z,1.40
2022-09-04T09:53:32.597Z,1.40
2022-09-04T09:54:32.606Z,1.70
2022-09-04T09:55:32.575Z,1.60
2022-09-04T09:56:32.587Z,1.50
2022-09-04T09:57:33.668Z,1.50
2022-09-04T09:58:32.534Z,1.70
2022-09-04T09:59:32.530Z,1.30
2022-09-04T10:00:32.518Z,1.70
2022-09-04T10:01:32.588Z,1.50
2022-09-04T10:02:32.558Z,1.70
2022-09-04T10:03:32.484Z,1.50
2022-09-04T10:04:34.131Z,1.60
2022-09-04T10:05:32.466Z,1.40
2022-09-04T10:06:32.473Z,1.60
2022-09-04T10:07:32.460Z,1.50
2022-09-04T10:08:36.123Z,1.50
2022-09-04T10:09:32.421Z,1.70
2022-09-04T10:10:32.414Z,1.60
2022-09-04T10:11:32.405Z,1.20
2022-09-04T10:12:32.402Z,1.70
2022-09-04T10:13:32.388Z,1.40
2022-09-04T10:14:32.378Z,1.40
2022-09-04T10:15:32.369Z,1.70
2022-09-04T10:16:32.399Z,1.60
2022-09-04T10:17:32.348Z,1.50
2022-09-04T10:18:32.323Z,1.70
2022-09-04T10:19:34.662Z,1.50
2022-09-04T10:20:32.308Z,1.30
2022-09-04T10:21:32.295Z,1.50
2022-09-04T10:22:32.311Z,1.90
2022-09-04T10:23:32.273Z,1.50
2022-09-04T10:24:32.268Z,1.70
2022-09-04T10:25:32.260Z,1.60
2022-09-04T10:26:32.246Z,1.50
2022-09-04T10:27:32.248Z,1.50
2022-09-04T10:28:32.225Z,1.80
2022-09-04T10:29:32.215Z,1.60
2022-09-04T10:30:32.240Z,1.60
2022-09-04T10:31:32.203Z,1.50
2022-09-04T10:32:32.195Z,1.50
2022-09-04T10:33:32.177Z,1.50
2022-09-04T10:34:32.166Z,1.70
2022-09-04T10:35:32.148Z,1.60
2022-09-04T10:36:32.136Z,1.40
2022-09-04T10:37:32.145Z,1.60
2022-09-04T10:38:32.120Z,1.30
2022-09-04T10:39:32.172Z,1.30
2022-09-04T10:40:32.098Z,1.20
2022-09-04T10:41:32.085Z,1.50
2022-09-04T10:42:32.091Z,1.60
2022-09-04T10:43:32.064Z,1.70
2022-09-04T10:44:32.057Z,1.50
2022-09-04T10:45:32.065Z,1.50
2022-09-04T10:46:32.077Z,2.00
2022-09-04T10:47:32.039Z,1.50
2022-09-04T10:48:32.017Z,1.40
2022-09-04T10:49:32.007Z,1.50
2022-09-04T10:50:31.990Z,1.50
2022-09-04T10:51:31.986Z,1.60
2022-09-04T10:52:31.986Z,1.70
2022-09-04T10:53:31.962Z,1.40
2022-09-04T10:54:31.951Z,1.30
2022-09-04T10:55:31.942Z,1.50
2022-09-04T10:56:31.939Z,1.60
2022-09-04T10:57:31.934Z,1.60
2022-09-04T10:58:31.908Z,1.60
2022-09-04T10:59:31.907Z,1.40
2022-09-04T11:00:31.890Z,1.40
2022-09-04T11:01:31.944Z,1.40
2022-09-04T11:02:32.042Z,1.90
2022-09-04T11:03:31.868Z,1.50
2022-09-04T11:04:31.846Z,1.60
2022-09-04T11:05:31.834Z,1.50
2022-09-04T11:06:31.827Z,1.60
2022-09-04T11:07:31.825Z,1.40
2022-09-04T11:08:31.800Z,1.50
2022-09-04T11:09:31.800Z,1.50
2022-09-04T11:10:31.781Z,1.30
2022-09-04T11:11:31.774Z,1.40
2022-09-04T11:12:31.776Z,1.30
2022-09-04T11:13:31.755Z,1.50
2022-09-04T11:14:31.738Z,1.60
2022-09-04T11:15:31.725Z,1.50
2022-09-04T11:16:31.754Z,1.70
2022-09-04T11:17:31.721Z,1.30
2022-09-04T11:18:31.691Z,1.50
2022-09-04T11:19:31.685Z,1.40
2022-09-04T11:20:31.675Z,1.70
2022-09-04T11:21:31.664Z,1.50
2022-09-04T11:22:31.687Z,1.40
2022-09-04T11:23:31.639Z,1.50
2022-09-04T11:24:31.631Z,1.30
2022-09-04T11:25:31.617Z,1.70
2022-09-04T11:26:31.615Z,1.40
2022-09-04T11:27:31.612Z,1.50
2022-09-04T11:28:31.589Z,1.70
2022-09-04T11:29:31.575Z,1.80
2022-09-04T11:30:31.565Z,1.30
2022-09-04T11:31:31.626Z,1.60
2022-09-04T11:32:31.554Z,1.60
2022-09-04T11:33:31.534Z,1.80
2022-09-04T11:34:31.523Z,1.60
2022-09-04T11:35:31.504Z,1.70
2022-09-04T11:36:31.507Z,1.60
2022-09-04T11:37:31.499Z,1.80
2022-09-04T11:38:31.479Z,1.70
2022-09-04T11:39:31.517Z,1.70
2022-09-04T11:40:31.456Z,1.70
2022-09-04T11:41:31.450Z,1.70
2022-09-04T11:42:31.442Z,1.60
2022-09-04T11:43:31.418Z,1.70
2022-09-04T11:44:31.405Z,1.70
2022-09-04T11:45:31.474Z,2.00
2022-09-04T11:46:31.388Z,1.80
2022-09-04T11:47:31.384Z,2.00
2022-09-04T11:48:31.367Z,1.80
2022-09-04T11:49:31.433Z,1.40
2022-09-04T11:50:31.343Z,1.70
2022-09-04T11:51:31.349Z,1.70
2022-09-04T11:52:31.330Z,1.50
2022-09-04T11:53:31.320Z,1.60
2022-09-04T11:54:31.299Z,1.60
2022-09-04T11:55:31.291Z,1.50
2022-09-04T11:56:31.279Z,2.60
2022-09-04T11:57:31.273Z,2.00
2022-09-04T11:58:31.291Z,1.80
2022-09-04T11:59:31.247Z,2.30
2022-09-04T12:00:31.232Z,2.10
2022-09-04T12:01:31.221Z,1.80
2022-09-04T12:02:31.310Z,1.70
2022-09-04T12:03:31.324Z,1.70
2022-09-04T12:04:31.188Z,1.80
2022-09-04T12:05:31.177Z,2.40
2022-09-04T12:06:31.164Z,8.50
2022-09-04T12:07:39.351Z,8.60
2022-09-04T12:08:32.134Z,13.70
2022-09-04T12:09:31.135Z,2.40
2022-09-04T12:10:31.127Z,2.50
2022-09-04T12:11:31.108Z,3.90
2022-09-04T12:12:31.118Z,6.10
2022-09-04T12:13:31.438Z,1.90
2022-09-04T12:14:31.075Z,2.10
2022-09-04T12:15:31.065Z,1.80
2022-09-04T12:16:31.126Z,1.50
2022-09-04T12:17:31.063Z,1.80
2022-09-04T12:18:31.032Z,1.90
2022-09-04T12:19:31.024Z,1.60
2022-09-04T12:20:31.009Z,1.80
2022-09-04T12:21:31.000Z,1.60
2022-09-04T12:22:30.992Z,1.80
2022-09-04T12:23:30.967Z,1.60
2022-09-04T12:24:30.965Z,2.20
2022-09-04T12:25:30.957Z,2.20
2022-09-04T12:26:30.946Z,2.80
2022-09-04T12:27:30.964Z,2.90
2022-09-04T12:28:30.922Z,2.30
2022-09-04T12:29:30.908Z,1.90
2022-09-04T12:30:30.898Z,2.00
2022-09-04T12:31:30.936Z,1.80
2022-09-04T12:32:30.890Z,1.80
2022-09-04T12:33:30.869Z,1.90
2022-09-04T12:34:30.851Z,1.70
2022-09-04T12:35:32.025Z,1.80
2022-09-04T12:36:30.830Z,1.60
2022-09-04T12:37:30.836Z,1.50
2022-09-04T12:38:30.810Z,1.50
2022-09-04T12:39:30.840Z,1.90
2022-09-04T12:40:30.783Z,1.60
2022-09-04T12:41:30.767Z,1.60
2022-09-04T12:42:30.775Z,1.70
2022-09-04T12:43:30.749Z,1.80
2022-09-04T12:44:30.736Z,1.50
2022-09-04T12:45:30.781Z,1.60
2022-09-04T12:46:30.717Z,1.70
2022-09-04T12:47:31.503Z,1.60
2022-09-04T12:48:30.688Z,1.80
2022-09-04T12:49:30.687Z,1.70
2022-09-04T12:50:31.012Z,1.80
2022-09-04T12:51:30.656Z,1.70
2022-09-04T12:52:30.679Z,1.80
2022-09-04T12:53:30.644Z,1.70
2022-09-04T12:54:30.631Z,1.90
2022-09-04T12:55:33.447Z,1.50
2022-09-04T12:56:31.602Z,1.50
2022-09-04T12:57:30.615Z,1.60
2022-09-04T12:58:30.583Z,1.40
2022-09-04T12:59:30.571Z,1.50
2022-09-04T13:00:31.711Z,1.50
2022-09-04T13:01:31.704Z,1.50
2022-09-04T13:02:30.670Z,1.60
2022-09-04T13:03:30.634Z,1.70
2022-09-04T13:04:30.513Z,1.80
2022-09-04T13:05:30.532Z,1.40
2022-09-04T13:06:30.512Z,1.40
2022-09-04T13:07:30.490Z,1.80
2022-09-04T13:08:30.476Z,1.60
2022-09-04T13:09:30.460Z,1.50
2022-09-04T13:10:30.452Z,1.90
2022-09-04T13:11:30.444Z,1.80
2022-09-04T13:12:30.474Z,1.50
2022-09-04T13:13:30.417Z,1.70
2022-09-04T13:14:30.401Z,1.80
2022-09-04T13:15:30.391Z,1.60
2022-09-04T13:16:30.396Z,1.50
2022-09-04T13:17:30.383Z,1.60
2022-09-04T13:18:30.364Z,1.70